Zabcikville, Texas
Current Conditions -  °F | °C
As of 11:15 AM on Thursday 27 Nov 2014 (Local Time) from KTPL Reporting Station
Clear Clear  
Wind Chill: 55°   Ceiling: Unl
Heat Index: 55°   Visibility: 10mi
Dew Point: 25°   Wind: 9mph
Humidity: 31%   Direction: 60°ENE
Pressure: 30.52"   Gusts: NA
Location:  31.0795°N, 97.3287°W
Report Text: KTPL 271715Z AUTO 06008KT 10SM CLR 13/M04 A3052 RMK AO1
Loading
Personal Weather Stations






























Interactive Weather Map New forecast layout! Learn more

10-Day Weather Forecast

Advertisements
Track Severe Weather on mobile